Hayti, Missouri
Current Conditions -  °F | °C
As of 12:53 PM on Thursday 30 Oct 2014 (Local Time) from KHKA Reporting Station
Clear Clear  
Wind Chill: 65°   Ceiling: Unl
Heat Index: 65°   Visibility: 10mi
Dew Point: 40°   Wind: 0mph
Humidity: 40%   Direction: NA
Pressure: 30.14"   Gusts: NA
Location:  36.23°N, 89.75°W
Report Text: KHKA 301753Z AUTO 00000KT 10SM CLR 18/04 A3014 RMK AO2 SLP205 T01830044 10183 20050 58011
Loading
Personal Weather Stations






























Interactive Weather Map
Tropical Storm Tracking
New forecast layout! Learn more

10-Day Weather Forecast

Advertisements
Track Severe Weather on mobile